Time;durP1;ratioP1;P1;durP2;ratioP2;P2;SDS_P1;SDS_P2;PMS_P1;PMS_P2;Temp;Humidity;BMP_temperature;BMP_pressure;BME280_temperature;BME280_humidity;BME280_pressure;Samples;Min_cycle;Max_cycle;Signal;HPM_P1;HPM_P2
2022/05/05 00:01:51;;;;;;;;;33.67;30.67;;;;;;;;5082443;27;46199;-76
2022/05/05 00:04:18;;;;;;;;;35.25;31.50;;;;;;;;5080842;28;45913;-76
2022/05/05 00:06:43;;;;;;;;;34.25;31.00;;;;;;;;5082416;27;45424;-76
2022/05/05 00:09:08;;;;;;;;;36.00;32.25;;;;;;;;5082391;27;45333;-76
2022/05/05 00:14:24;;;;;;;;;32.33;30.67;;;;;;;;5082031;28;45293;-76
2022/05/05 00:16:53;;;;;;;;;37.75;34.00;;;;;;;;5101393;27;45428;-76
2022/05/05 00:19:19;;;;;;;;;39.75;32.00;;;;;;;;5102781;27;45663;-76
2022/05/05 00:21:44;;;;;;;;;36.75;33.50;;;;;;;;5102316;27;46187;-76
2022/05/05 00:24:09;;;;;;;;;36.25;32.25;;;;;;;;5118528;27;45875;-76
2022/05/05 00:26:35;;;;;;;;;37.00;33.75;;;;;;;;5102790;27;45203;-75
2022/05/05 00:29:00;;;;;;;;;39.75;34.00;;;;;;;;5101163;27;46335;-76
2022/05/05 00:31:25;;;;;;;;;37.75;32.00;;;;;;;;5102324;27;46304;-77
2022/05/05 00:33:50;;;;;;;;;41.25;35.50;;;;;;;;5101094;27;45788;-76
2022/05/05 00:36:16;;;;;;;;;41.25;36.25;;;;;;;;5102427;27;45275;-76
2022/05/05 00:38:41;;;;;;;;;46.75;38.25;;;;;;;;5102255;27;45528;-76
2022/05/05 00:41:06;;;;;;;;;47.75;39.75;;;;;;;;5102381;27;45495;-76
2022/05/05 00:43:33;;;;;;;;;50.50;40.50;;;;;;;;5102184;27;45366;-76
2022/05/05 00:45:58;;;;;;;;;47.75;40.25;;;;;;;;5102543;27;45504;-76
2022/05/05 00:48:24;;;;;;;;;44.75;37.75;;;;;;;;5102087;27;45384;-76
2022/05/05 00:50:49;;;;;;;;;43.00;37.00;;;;;;;;5102083;27;45411;-76
2022/05/05 00:53:15;;;;;;;;;45.75;38.75;;;;;;;;5102061;27;45286;-76
2022/05/05 00:55:40;;;;;;;;;48.25;39.50;;;;;;;;5102187;27;45535;-76
2022/05/05 00:58:05;;;;;;;;;48.75;40.50;;;;;;;;5099368;27;46736;-76
2022/05/05 01:00:33;;;;;;;;;46.50;38.25;;;;;;;;5101586;27;46094;-77
2022/05/05 01:02:59;;;;;;;;;47.50;39.75;;;;;;;;5102020;27;45206;-76
2022/05/05 01:05:25;;;;;;;;;45.25;37.50;;;;;;;;5101989;27;45377;-76
2022/05/05 01:07:50;;;;;;;;;49.25;40.75;;;;;;;;5101804;27;45407;-76
2022/05/05 01:10:16;;;;;;;;;48.50;42.25;;;;;;;;5101611;27;46264;-77
2022/05/05 01:12:41;;;;;;;;;47.50;38.75;;;;;;;;5101635;27;45392;-76
2022/05/05 01:15:06;;;;;;;;;42.50;36.25;;;;;;;;5097020;27;45430;-76
2022/05/05 01:17:32;;;;;;;;;45.75;38.50;;;;;;;;5081301;27;45389;-76
2022/05/05 01:20:08;;;;;;;;;46.75;40.75;;;;;;;;5081257;27;45404;-76
2022/05/05 01:22:33;;;;;;;;;52.00;41.25;;;;;;;;5079866;28;45816;-77
2022/05/05 01:30:26;;;;;;;;;54.50;44.00;;;;;;;;5080696;28;45731;-76
2022/05/05 01:32:51;;;;;;;;;57.50;46.00;;;;;;;;5081004;27;45298;-77
2022/05/05 01:35:17;;;;;;;;;55.00;44.25;;;;;;;;5080945;27;45460;-76
2022/05/05 01:37:45;;;;;;;;;51.25;42.00;;;;;;;;5080933;28;45393;-77
2022/05/05 01:40:11;;;;;;;;;53.75;45.00;;;;;;;;5079680;28;48353;-76
2022/05/05 01:42:36;;;;;;;;;51.25;42.50;;;;;;;;5079065;28;45248;-76
2022/05/05 01:45:01;;;;;;;;;52.75;43.75;;;;;;;;5079636;27;45555;-77
2022/05/05 01:47:26;;;;;;;;;51.50;43.75;;;;;;;;5080865;28;45216;-77
2022/05/05 01:49:56;;;;;;;;;48.50;40.25;;;;;;;;5080682;27;45607;-77
2022/05/05 01:52:21;;;;;;;;;54.50;43.75;;;;;;;;5080816;27;45649;-77
2022/05/05 01:54:46;;;;;;;;;49.00;40.25;;;;;;;;5079216;28;45429;-77
2022/05/05 01:57:11;;;;;;;;;49.75;40.75;;;;;;;;5079024;28;45789;-77
2022/05/05 01:59:37;;;;;;;;;48.00;40.00;;;;;;;;5079088;28;47495;-77
2022/05/05 02:02:02;;;;;;;;;46.50;38.00;;;;;;;;5079195;27;45334;-77
2022/05/05 02:04:27;;;;;;;;;44.25;38.25;;;;;;;;5080621;27;45425;-77
2022/05/05 02:06:52;;;;;;;;;45.25;38.25;;;;;;;;5095992;27;46070;-76
2022/05/05 02:09:18;;;;;;;;;45.75;37.25;;;;;;;;5079896;27;46338;-77
2022/05/05 02:11:43;;;;;;;;;39.50;34.50;;;;;;;;5080477;27;45295;-77
2022/05/05 02:14:08;;;;;;;;;45.50;38.00;;;;;;;;5080234;27;45609;-77
2022/05/05 02:16:33;;;;;;;;;40.25;35.00;;;;;;;;5095913;27;47067;-76
2022/05/05 02:18:59;;;;;;;;;39.50;35.00;;;;;;;;5100718;27;45324;-77
2022/05/05 02:21:24;;;;;;;;;44.00;37.50;;;;;;;;5100746;27;45274;-77
2022/05/05 02:23:49;;;;;;;;;42.25;36.25;;;;;;;;5116558;27;45283;-77
2022/05/05 02:26:14;;;;;;;;;40.50;34.00;;;;;;;;5099130;27;46441;-77
2022/05/05 02:28:39;;;;;;;;;43.00;37.00;;;;;;;;5100300;27;46355;-77
2022/05/05 02:31:05;;;;;;;;;40.25;33.25;;;;;;;;5098953;27;45281;-77
2022/05/05 02:33:30;;;;;;;;;36.00;32.25;;;;;;;;5099314;27;45461;-77
2022/05/05 02:38:42;;;;;;;;;37.25;32.00;;;;;;;;5100286;27;45848;-77
2022/05/05 02:41:07;;;;;;;;;26.33;26.00;;;;;;;;5099086;27;45375;-76
2022/05/05 02:43:32;;;;;;;;;24.67;23.33;;;;;;;;5100354;27;45213;-78
2022/05/05 02:45:58;;;;;;;;;23.33;20.67;;;;;;;;5100512;27;45191;-78
2022/05/05 02:48:23;;;;;;;;;22.00;20.33;;;;;;;;5098919;27;48428;-77
2022/05/05 02:50:48;;;;;;;;;19.00;18.50;;;;;;;;5100339;27;45565;-77
2022/05/05 02:55:57;;;;;;;;;20.00;19.00;;;;;;;;5100101;27;45226;-77
2022/05/05 02:58:22;;;;;;;;;18.00;18.00;;;;;;;;5099793;27;46174;-77
2022/05/05 03:00:47;;;;;;;;;23.00;19.00;;;;;;;;5100132;27;45176;-77
2022/05/05 03:03:13;;;;;;;;;19.67;19.33;;;;;;;;5100248;27;45246;-78
2022/05/05 03:05:38;;;;;;;;;18.33;18.33;;;;;;;;5100128;27;45266;-77
2022/05/05 03:08:03;;;;;;;;;20.33;18.67;;;;;;;;5099998;27;45336;-77
2022/05/05 03:10:29;;;;;;;;;18.00;16.67;;;;;;;;5100078;27;45375;-77
2022/05/05 03:12:54;;;;;;;;;19.00;18.33;;;;;;;;5098713;27;45558;-77
2022/05/05 03:15:19;;;;;;;;;20.00;18.00;;;;;;;;5093228;27;45397;-77
2022/05/05 03:17:44;;;;;;;;;17.67;17.67;;;;;;;;5079570;27;46285;-77
2022/05/05 03:20:10;;;;;;;;;15.33;15.33;;;;;;;;5079633;27;45299;-77
2022/05/05 03:22:35;;;;;;;;;19.67;19.33;;;;;;;;5080053;28;45504;-76
2022/05/05 03:25:00;;;;;;;;;18.33;17.67;;;;;;;;5083111;27;45492;-77
2022/05/05 03:27:25;;;;;;;;;20.00;18.00;;;;;;;;5082902;27;46376;-77
2022/05/05 03:29:51;;;;;;;;;16.33;15.00;;;;;;;;5081690;28;45333;-77
2022/05/05 03:32:16;;;;;;;;;17.33;16.33;;;;;;;;5082991;27;45568;-77
2022/05/05 03:34:41;;;;;;;;;22.67;19.33;;;;;;;;5082808;27;45398;-77
2022/05/05 03:37:06;;;;;;;;;19.67;19.67;;;;;;;;5082564;27;45443;-77
2022/05/05 03:39:31;;;;;;;;;21.00;19.67;;;;;;;;5082736;27;45308;-77
2022/05/05 03:41:57;;;;;;;;;16.33;16.33;;;;;;;;5081332;27;45405;-77
2022/05/05 03:44:22;;;;;;;;;17.67;16.33;;;;;;;;5082828;28;45479;-76
2022/05/05 03:46:47;;;;;;;;;19.00;17.67;;;;;;;;5081265;28;47457;-77
2022/05/05 03:49:12;;;;;;;;;18.67;17.00;;;;;;;;5081538;28;45493;-77
2022/05/05 03:51:38;;;;;;;;;21.00;19.33;;;;;;;;5081260;28;45317;-77
2022/05/05 03:54:03;;;;;;;;;21.33;19.67;;;;;;;;5082572;27;45476;-77
2022/05/05 03:56:28;;;;;;;;;23.33;20.00;;;;;;;;5098330;27;46978;-78
2022/05/05 03:58:54;;;;;;;;;19.00;17.67;;;;;;;;5081018;28;45353;-77
2022/05/05 04:01:19;;;;;;;;;21.67;20.00;;;;;;;;5082790;27;45483;-77
2022/05/05 04:03:44;;;;;;;;;24.00;22.33;;;;;;;;5081099;28;46102;-77
2022/05/05 04:06:10;;;;;;;;;18.67;18.67;;;;;;;;5082545;28;45602;-78
2022/05/05 04:08:37;;;;;;;;;19.00;19.00;;;;;;;;5080910;28;45437;-77
2022/05/05 04:11:02;;;;;;;;;19.33;18.67;;;;;;;;5082467;28;45340;-77
2022/05/05 04:13:28;;;;;;;;;20.00;19.00;;;;;;;;5097935;27;46155;-77
2022/05/05 04:15:53;;;;;;;;;16.67;16.67;;;;;;;;5092123;27;47490;-77
2022/05/05 04:18:19;;;;;;;;;20.33;19.33;;;;;;;;5102829;27;45163;-77
2022/05/05 04:20:44;;;;;;;;;16.00;16.00;;;;;;;;5102997;27;45502;-77
2022/05/05 04:23:10;;;;;;;;;24.00;23.00;;;;;;;;5102437;27;45481;-77
2022/05/05 04:25:39;;;;;;;;;29.67;28.67;;;;;;;;5102635;27;45259;-83
2022/05/05 04:28:04;;;;;;;;;21.33;21.33;;;;;;;;5102470;27;45292;-79
2022/05/05 04:30:31;;;;;;;;;22.33;19.33;;;;;;;;5102771;27;45301;-79
2022/05/05 04:32:56;;;;;;;;;25.33;23.67;;;;;;;;5102499;27;45294;-79
2022/05/05 04:35:23;;;;;;;;;24.00;22.00;;;;;;;;5100724;27;47245;-78
2022/05/05 04:37:48;;;;;;;;;21.33;20.67;;;;;;;;5118312;27;45348;-79
2022/05/05 04:40:14;;;;;;;;;24.00;24.00;;;;;;;;5102533;27;45421;-79
2022/05/05 04:42:39;;;;;;;;;22.33;21.00;;;;;;;;5102145;27;45276;-79
2022/05/05 04:45:05;;;;;;;;;25.33;23.33;;;;;;;;5117988;27;48142;-79
2022/05/05 04:47:32;;;;;;;;;21.00;20.33;;;;;;;;5102289;27;45260;-79
2022/05/05 04:49:57;;;;;;;;;21.33;19.67;;;;;;;;5102410;27;45341;-79
2022/05/05 04:52:23;;;;;;;;;25.67;22.67;;;;;;;;5100476;27;47068;-80
2022/05/05 04:54:48;;;;;;;;;27.00;26.25;;;;;;;;5100681;27;48020;-79
2022/05/05 04:57:13;;;;;;;;;26.67;23.00;;;;;;;;5101919;27;45343;-78
2022/05/05 04:59:39;;;;;;;;;27.00;24.33;;;;;;;;5100888;27;45451;-79
2022/05/05 05:02:04;;;;;;;;;27.25;27.00;;;;;;;;5094531;27;45350;-79
2022/05/05 05:04:30;;;;;;;;;22.00;22.00;;;;;;;;5080351;28;48464;-79
2022/05/05 05:06:55;;;;;;;;;24.33;20.67;;;;;;;;5079511;28;45670;-79
2022/05/05 05:09:20;;;;;;;;;17.00;17.00;;;;;;;;5081876;27;45337;-78
2022/05/05 05:11:45;;;;;;;;;23.33;23.33;;;;;;;;5080108;28;47298;-77
2022/05/05 05:14:10;;;;;;;;;26.33;25.00;;;;;;;;5080048;28;47458;-78
2022/05/05 05:16:36;;;;;;;;;23.67;23.67;;;;;;;;5098520;27;45325;-78
2022/05/05 05:19:02;;;;;;;;;26.33;24.33;;;;;;;;5101873;27;45449;-76
2022/05/05 05:21:27;;;;;;;;;24.67;23.33;;;;;;;;5100958;27;45475;-79
2022/05/05 05:23:52;;;;;;;;;29.00;24.00;;;;;;;;5100684;27;47086;-78
2022/05/05 05:26:18;;;;;;;;;24.00;23.00;;;;;;;;5100235;27;45284;-78
2022/05/05 05:28:43;;;;;;;;;29.00;25.00;;;;;;;;5101559;27;45566;-77
2022/05/05 05:31:08;;;;;;;;;28.67;27.33;;;;;;;;5099892;27;46006;-79
2022/05/05 05:33:34;;;;;;;;;28.67;25.00;;;;;;;;5089333;27;47181;-78
2022/05/05 05:35:59;;;;;;;;;24.00;23.00;;;;;;;;5077125;28;45953;-78
2022/05/05 05:38:24;;;;;;;;;34.75;30.75;;;;;;;;5075719;28;45409;-78
2022/05/05 05:40:49;;;;;;;;;30.50;28.75;;;;;;;;5075451;28;46410;-78
2022/05/05 05:43:15;;;;;;;;;33.50;30.75;;;;;;;;5075032;28;47316;-77
2022/05/05 05:45:40;;;;;;;;;31.33;29.00;;;;;;;;5074491;28;45872;-77
2022/05/05 05:48:06;;;;;;;;;30.75;29.00;;;;;;;;5060246;28;45414;-77
2022/05/05 05:50:31;;;;;;;;;33.33;29.33;;;;;;;;5066450;28;46148;-77
2022/05/05 05:52:57;;;;;;;;;35.75;31.00;;;;;;;;5060588;28;46411;-76
2022/05/05 05:55:22;;;;;;;;;28.00;26.00;;;;;;;;5075884;28;45369;-76
2022/05/05 05:57:48;;;;;;;;;28.33;28.00;;;;;;;;5060377;28;45256;-77
2022/05/05 06:00:13;;;;;;;;;30.67;29.00;;;;;;;;5058997;28;47429;-78
2022/05/05 06:05:22;;;;;;;;;35.25;31.25;;;;;;;;5060290;28;45349;-79
2022/05/05 06:07:48;;;;;;;;;29.67;29.00;;;;;;;;5083052;27;45339;-79
2022/05/05 06:10:13;;;;;;;;;36.67;29.67;;;;;;;;5078051;28;45807;-79
2022/05/05 06:12:39;;;;;;;;;32.67;30.67;;;;;;;;5062884;28;45471;-78
2022/05/05 06:15:04;;;;;;;;;31.33;29.00;;;;;;;;5069654;27;45463;-79
2022/05/05 06:17:29;;;;;;;;;32.00;27.67;;;;;;;;5101844;27;45331;-82
2022/05/05 06:19:54;;;;;;;;;41.50;34.00;;;;;;;;5103449;27;45325;-78
2022/05/05 06:22:20;;;;;;;;;33.00;29.67;;;;;;;;5102137;27;47365;-78
2022/05/05 06:24:45;;;;;;;;;35.75;32.00;;;;;;;;5099522;27;45341;-78
2022/05/05 06:27:10;;;;;;;;;30.00;28.67;;;;;;;;5100654;27;45316;-78
2022/05/05 06:29:35;;;;;;;;;37.75;32.25;;;;;;;;5099180;27;46153;-81
2022/05/05 06:32:01;;;;;;;;;38.00;32.50;;;;;;;;5100657;27;45423;-77
2022/05/05 06:34:26;;;;;;;;;35.00;30.67;;;;;;;;5073097;27;45354;-78
2022/05/05 06:36:51;;;;;;;;;36.25;31.25;;;;;;;;5071742;28;45567;-78
2022/05/05 06:39:16;;;;;;;;;37.00;31.00;;;;;;;;5071200;28;45544;-77
2022/05/05 06:41:42;;;;;;;;;32.00;31.00;;;;;;;;5078620;28;47121;-76
2022/05/05 06:44:07;;;;;;;;;38.75;33.75;;;;;;;;5078541;27;45389;-75
2022/05/05 06:46:33;;;;;;;;;33.33;30.00;;;;;;;;5078899;28;45348;-76
2022/05/05 06:48:58;;;;;;;;;36.50;32.25;;;;;;;;5079767;27;45446;-75
2022/05/05 06:51:23;;;;;;;;;35.50;31.75;;;;;;;;5079820;28;45291;-76
2022/05/05 06:53:48;;;;;;;;;43.50;33.75;;;;;;;;5080004;27;45279;-78
2022/05/05 06:56:13;;;;;;;;;37.00;33.75;;;;;;;;5080018;27;45263;-76
2022/05/05 06:58:39;;;;;;;;;38.50;32.25;;;;;;;;5078177;28;46958;-77
2022/05/05 07:03:47;;;;;;;;;38.00;32.00;;;;;;;;5067877;28;45292;-76
2022/05/05 07:06:13;;;;;;;;;38.25;33.50;;;;;;;;5077437;28;45412;-77
2022/05/05 07:11:22;;;;;;;;;35.00;31.50;;;;;;;;5078568;28;45430;-75
2022/05/05 07:13:47;;;;;;;;;44.25;34.00;;;;;;;;5077308;27;45246;-75
2022/05/05 07:16:13;;;;;;;;;41.50;35.50;;;;;;;;5092495;27;45287;-75
2022/05/05 07:18:38;;;;;;;;;42.75;36.25;;;;;;;;5098641;27;46216;-75
2022/05/05 07:21:03;;;;;;;;;43.25;35.50;;;;;;;;5098399;27;47283;-76
2022/05/05 07:23:28;;;;;;;;;39.25;34.00;;;;;;;;5099922;27;45271;-75
2022/05/05 07:25:54;;;;;;;;;42.75;35.50;;;;;;;;5100079;27;45289;-75
2022/05/05 07:28:19;;;;;;;;;37.25;33.75;;;;;;;;5099783;27;45318;-75
2022/05/05 07:30:44;;;;;;;;;38.00;34.25;;;;;;;;5115529;27;46987;-75
2022/05/05 07:33:10;;;;;;;;;39.00;34.25;;;;;;;;5098236;27;45850;-75
2022/05/05 07:35:38;;;;;;;;;38.25;32.00;;;;;;;;5099758;27;45220;-75
2022/05/05 07:38:03;;;;;;;;;43.00;34.00;;;;;;;;5098274;27;46177;-76
2022/05/05 07:40:28;;;;;;;;;38.50;33.25;;;;;;;;5098295;27;46502;-75
2022/05/05 07:42:53;;;;;;;;;39.00;34.00;;;;;;;;5061590;28;45330;-75
2022/05/05 07:45:19;;;;;;;;;43.25;36.50;;;;;;;;5059277;28;45302;-75
2022/05/05 07:47:44;;;;;;;;;34.00;31.67;;;;;;;;5057571;28;47321;-77
2022/05/05 07:50:09;;;;;;;;;40.50;33.75;;;;;;;;5061877;28;46912;-78
2022/05/05 07:52:35;;;;;;;;;44.00;37.00;;;;;;;;5066906;28;45409;-77
2022/05/05 07:55:00;;;;;;;;;44.75;36.50;;;;;;;;5068208;28;45619;-78
2022/05/05 07:57:25;;;;;;;;;36.33;32.67;;;;;;;;5068737;28;47301;-78
2022/05/05 07:59:50;;;;;;;;;45.00;33.75;;;;;;;;5073211;28;45319;-79
2022/05/05 08:02:16;;;;;;;;;41.25;33.75;;;;;;;;5067846;28;45309;-78
2022/05/05 08:04:42;;;;;;;;;42.75;35.25;;;;;;;;5066716;28;45390;-78
2022/05/05 08:07:07;;;;;;;;;38.50;33.25;;;;;;;;5068462;28;45342;-79
2022/05/05 08:09:32;;;;;;;;;42.25;35.00;;;;;;;;5073732;28;45378;-78
2022/05/05 08:11:59;;;;;;;;;43.00;35.75;;;;;;;;5074959;28;45303;-78
2022/05/05 08:14:25;;;;;;;;;40.50;33.25;;;;;;;;5074630;28;45335;-78
2022/05/05 08:16:50;;;;;;;;;41.67;34.67;;;;;;;;5115834;27;45226;-79
2022/05/05 08:19:16;;;;;;;;;46.00;38.50;;;;;;;;5117825;27;45378;-78
2022/05/05 08:21:41;;;;;;;;;45.50;37.25;;;;;;;;5116467;27;45515;-78
2022/05/05 08:29:34;;;;;;;;;45.25;36.75;;;;;;;;5121163;27;45841;-78
2022/05/05 08:32:00;;;;;;;;;45.25;37.00;;;;;;;;5118994;27;45452;-79
2022/05/05 08:34:25;;;;;;;;;43.75;36.50;;;;;;;;5120838;27;45420;-79
2022/05/05 08:36:51;;;;;;;;;43.50;37.50;;;;;;;;5117370;27;45238;-78
2022/05/05 08:39:16;;;;;;;;;42.00;35.00;;;;;;;;5119566;27;45343;-77
2022/05/05 08:41:42;;;;;;;;;41.50;35.25;;;;;;;;5115459;27;46005;-78
2022/05/05 08:44:07;;;;;;;;;44.50;37.75;;;;;;;;5116154;27;45357;-78
2022/05/05 08:46:33;;;;;;;;;44.50;34.50;;;;;;;;5115031;27;46124;-78
2022/05/05 08:49:01;;;;;;;;;38.75;33.75;;;;;;;;5118331;27;45251;-78
2022/05/05 08:51:27;;;;;;;;;42.00;35.00;;;;;;;;5118626;27;45293;-78
2022/05/05 08:53:53;;;;;;;;;41.25;34.75;;;;;;;;5118204;27;45363;-79
2022/05/05 08:56:18;;;;;;;;;40.75;34.75;;;;;;;;5119113;27;45268;-78
2022/05/05 08:58:44;;;;;;;;;43.25;36.50;;;;;;;;5119654;27;45435;-78
2022/05/05 09:01:10;;;;;;;;;38.50;32.50;;;;;;;;5116594;27;45376;-78
2022/05/05 09:03:36;;;;;;;;;40.75;34.50;;;;;;;;5117996;27;45313;-78
2022/05/05 09:06:01;;;;;;;;;36.67;32.00;;;;;;;;5113856;27;45289;-78
2022/05/05 09:08:28;;;;;;;;;35.67;31.33;;;;;;;;5103097;27;45562;-79
2022/05/05 09:10:54;;;;;;;;;36.25;33.00;;;;;;;;5086791;27;45409;-77
2022/05/05 09:13:26;;;;;;;;;36.67;32.33;;;;;;;;5081413;27;45302;-78
2022/05/05 09:15:53;;;;;;;;;36.67;31.33;;;;;;;;5094700;27;45417;-76
2022/05/05 09:18:28;;;;;;;;;41.00;34.00;;;;;;;;5105399;27;45259;-77
2022/05/05 09:20:54;;;;;;;;;32.67;30.00;;;;;;;;5092475;27;45392;-78
2022/05/05 09:26:24;;;;;;;;;39.00;33.75;;;;;;;;5089854;28;45353;-78
2022/05/05 09:28:49;;;;;;;;;40.50;34.50;;;;;;;;5082608;28;47288;-78
2022/05/05 09:31:14;;;;;;;;;39.33;33.67;;;;;;;;5087341;27;45370;-77
2022/05/05 09:33:41;;;;;;;;;39.67;33.33;;;;;;;;5087209;27;45332;-77
2022/05/05 09:36:07;;;;;;;;;38.33;34.00;;;;;;;;5096940;27;45326;-76
2022/05/05 09:38:52;;;;;;;;;31.00;29.67;;;;;;;;5094547;27;45249;-76
2022/05/05 09:41:18;;;;;;;;;30.33;29.00;;;;;;;;5090979;28;45376;-76
2022/05/05 09:43:43;;;;;;;;;30.67;29.00;;;;;;;;5085347;28;45307;-76
2022/05/05 09:46:21;;;;;;;;;32.00;30.00;;;;;;;;5084417;27;45981;-78
2022/05/05 09:48:46;;;;;;;;;21.33;19.00;;;;;;;;5082910;27;46199;-79
2022/05/05 09:51:12;;;;;;;;;28.33;27.33;;;;;;;;5074815;27;45508;-77
2022/05/05 09:59:14;;;;;;;;;29.33;29.00;;;;;;;;5070229;27;45502;-78
2022/05/05 10:01:41;;;;;;;;;30.00;29.00;;;;;;;;5079356;28;46182;-78
2022/05/05 10:04:07;;;;;;;;;31.00;29.33;;;;;;;;5079427;28;45169;-77
2022/05/05 10:06:34;;;;;;;;;27.67;27.00;;;;;;;;5077691;28;47005;-76
2022/05/05 10:09:01;;;;;;;;;30.00;29.00;;;;;;;;5079799;28;47993;-79
2022/05/05 10:11:27;;;;;;;;;27.00;26.00;;;;;;;;5081082;27;45428;-81
2022/05/05 10:13:53;;;;;;;;;28.67;26.33;;;;;;;;5081553;27;45436;-78
2022/05/05 10:16:19;;;;;;;;;26.00;26.00;;;;;;;;5095216;27;45495;-78
2022/05/05 10:18:44;;;;;;;;;24.00;24.00;;;;;;;;5100831;27;45346;-79
2022/05/05 10:21:28;;;;;;;;;25.00;25.00;;;;;;;;5088643;27;45841;-78
2022/05/05 10:24:12;;;;;;;;;21.67;21.00;;;;;;;;5064463;28;45363;-78
2022/05/05 10:26:38;;;;;;;;;20.67;20.00;;;;;;;;5060716;28;45497;-77
2022/05/05 10:29:03;;;;;;;;;22.33;22.33;;;;;;;;5059614;28;47236;-79
2022/05/05 10:31:31;;;;;;;;;22.67;21.00;;;;;;;;5059323;28;45338;-80
2022/05/05 10:33:56;;;;;;;;;22.67;22.67;;;;;;;;5061978;28;45401;-79
2022/05/05 10:36:25;;;;;;;;;24.33;21.67;;;;;;;;5078677;28;46883;-77
2022/05/05 10:38:52;;;;;;;;;15.00;14.33;;;;;;;;5065397;28;45340;-79
2022/05/05 10:41:35;;;;;;;;;14.33;12.67;;;;;;;;5076660;28;45367;-77
2022/05/05 10:44:16;;;;;;;;;14.33;14.33;;;;;;;;5061284;28;45395;-78
2022/05/05 10:46:50;;;;;;;;;19.33;19.33;;;;;;;;5059834;28;45299;-78
2022/05/05 10:49:37;;;;;;;;;15.67;14.00;;;;;;;;5066506;28;45432;-80
2022/05/05 10:52:08;;;;;;;;;19.00;18.33;;;;;;;;5060489;27;45453;-80
2022/05/05 10:54:33;;;;;;;;;19.00;17.67;;;;;;;;5070510;28;45397;-79
2022/05/05 10:57:18;;;;;;;;;17.33;16.00;;;;;;;;5076033;28;45817;-79
2022/05/05 11:00:03;;;;;;;;;16.00;16.00;;;;;;;;5075160;28;48568;-79
2022/05/05 11:02:28;;;;;;;;;14.67;14.00;;;;;;;;5074299;28;45235;-80
2022/05/05 11:05:13;;;;;;;;;11.00;10.67;;;;;;;;5083149;27;45685;-81
2022/05/05 11:07:38;;;;;;;;;8.67;8.67;;;;;;;;5079299;28;45432;-80
2022/05/05 11:10:04;;;;;;;;;14.00;14.00;;;;;;;;5075457;28;48146;-77
2022/05/05 11:12:31;;;;;;;;;8.33;8.33;;;;;;;;5081436;28;45314;-79
2022/05/05 11:23:24;;;;;;;;;13.33;13.00;;;;;;;;5061644;28;45532;-81
2022/05/05 11:25:50;;;;;;;;;11.33;11.33;;;;;;;;5074754;28;45418;-79
2022/05/05 11:28:16;;;;;;;;;9.67;9.67;;;;;;;;5077661;28;45509;-80
2022/05/05 11:30:42;;;;;;;;;13.00;11.67;;;;;;;;5077678;28;47359;-80
2022/05/05 11:33:08;;;;;;;;;12.00;10.00;;;;;;;;5081166;27;45706;-81
2022/05/05 11:35:33;;;;;;;;;10.33;8.67;;;;;;;;5063946;27;45421;-80
2022/05/05 11:37:58;;;;;;;;;9.00;9.00;;;;;;;;5070236;28;47465;-78
2022/05/05 11:40:24;;;;;;;;;10.00;10.00;;;;;;;;5065002;28;45231;-78
2022/05/05 11:45:37;;;;;;;;;11.33;11.33;;;;;;;;5063487;28;45267;-78
2022/05/05 11:48:16;;;;;;;;;6.00;6.00;;;;;;;;5069161;28;45524;-79
2022/05/05 11:50:44;;;;;;;;;8.00;8.00;;;;;;;;5075241;27;45396;-79
2022/05/05 11:53:17;;;;;;;;;8.67;8.00;;;;;;;;5066940;28;45307;-76
2022/05/05 11:55:44;;;;;;;;;11.00;10.00;;;;;;;;5083181;28;45881;-77
2022/05/05 12:01:36;;;;;;;;;6.00;6.00;;;;;;;;5082890;27;45468;-75
2022/05/05 12:03:58;;;;;;;;;7.67;7.00;;;;;;;;5083016;28;45345;-77
2022/05/05 12:06:24;;;;;;;;;7.67;7.67;;;;;;;;5082902;27;45325;-77
2022/05/05 12:08:50;;;;;;;;;6.67;6.67;;;;;;;;5081103;28;45945;-76
2022/05/05 12:11:15;;;;;;;;;8.00;8.00;;;;;;;;5082278;27;45272;-76
2022/05/05 12:13:40;;;;;;;;;9.00;7.67;;;;;;;;5081153;28;45329;-77
2022/05/05 12:16:05;;;;;;;;;9.00;9.00;;;;;;;;5094533;27;45577;-76
2022/05/05 12:18:31;;;;;;;;;7.00;7.00;;;;;;;;5102232;27;45377;-77
2022/05/05 12:20:57;;;;;;;;;6.33;6.33;;;;;;;;5102042;27;45294;-76
2022/05/05 12:23:24;;;;;;;;;10.67;9.00;;;;;;;;5076907;27;45303;-76
2022/05/05 12:25:49;;;;;;;;;7.00;7.00;;;;;;;;5075953;28;45563;-76
2022/05/05 12:28:14;;;;;;;;;9.33;9.33;;;;;;;;5082433;28;45357;-77
2022/05/05 12:30:40;;;;;;;;;7.00;7.00;;;;;;;;5082152;27;45845;-77
2022/05/05 12:33:07;;;;;;;;;7.67;7.67;;;;;;;;5081974;27;45381;-76
2022/05/05 12:35:37;;;;;;;;;9.67;9.00;;;;;;;;5081041;28;45560;-77
2022/05/05 12:38:03;;;;;;;;;7.33;6.67;;;;;;;;5081864;27;45403;-76
2022/05/05 12:40:28;;;;;;;;;6.67;6.67;;;;;;;;5080554;28;47870;-76
2022/05/05 12:43:00;;;;;;;;;12.33;10.00;;;;;;;;5080566;28;45381;-77
2022/05/05 12:45:26;;;;;;;;;10.33;10.33;;;;;;;;5080422;28;45242;-77
2022/05/05 12:47:52;;;;;;;;;7.00;7.00;;;;;;;;5080595;28;45997;-76
2022/05/05 12:50:34;;;;;;;;;10.33;9.33;;;;;;;;5081842;27;46059;-76
2022/05/05 13:01:20;;;;;;;;;9.00;7.67;;;;;;;;5081367;28;45775;-76
2022/05/05 13:03:45;;;;;;;;;10.33;10.00;;;;;;;;5080650;28;45939;-76
2022/05/05 13:06:12;;;;;;;;;8.33;8.33;;;;;;;;5083477;28;45760;-77
2022/05/05 13:08:37;;;;;;;;;9.00;8.00;;;;;;;;5080790;28;46118;-77
2022/05/05 13:11:02;;;;;;;;;8.00;7.33;;;;;;;;5078691;28;47297;-76
2022/05/05 13:13:28;;;;;;;;;7.00;7.00;;;;;;;;5076881;27;45954;-76
2022/05/05 13:15:53;;;;;;;;;8.00;8.00;;;;;;;;5091321;27;45537;-77
2022/05/05 13:18:19;;;;;;;;;6.33;6.33;;;;;;;;5080526;28;47329;-77
2022/05/05 13:20:44;;;;;;;;;6.00;6.00;;;;;;;;5083497;28;46619;-77
2022/05/05 13:23:09;;;;;;;;;7.00;7.00;;;;;;;;5081977;27;45287;-77
2022/05/05 13:25:34;;;;;;;;;6.67;6.67;;;;;;;;5082790;27;45412;-75
2022/05/05 13:28:01;;;;;;;;;7.33;7.33;;;;;;;;5081463;27;45654;-77
2022/05/05 13:30:27;;;;;;;;;8.67;8.67;;;;;;;;5082115;28;45476;-77
2022/05/05 13:32:52;;;;;;;;;9.00;9.00;;;;;;;;5082275;27;45345;-77
2022/05/05 13:35:18;;;;;;;;;8.00;8.00;;;;;;;;5082603;27;45396;-76
2022/05/05 13:37:43;;;;;;;;;8.33;8.33;;;;;;;;5081701;27;46321;-76
2022/05/05 13:40:09;;;;;;;;;9.67;9.67;;;;;;;;5082152;28;45612;-76
2022/05/05 13:42:34;;;;;;;;;11.67;10.67;;;;;;;;5079659;28;45887;-76
2022/05/05 13:44:59;;;;;;;;;8.33;8.33;;;;;;;;5075275;27;45409;-77
2022/05/05 13:47:25;;;;;;;;;8.00;8.00;;;;;;;;5078881;28;47123;-76
2022/05/05 13:49:50;;;;;;;;;10.00;9.67;;;;;;;;5077840;28;47101;-77
2022/05/05 13:52:15;;;;;;;;;7.67;7.67;;;;;;;;5078130;28;45373;-76
2022/05/05 13:54:41;;;;;;;;;8.33;8.33;;;;;;;;5073373;27;45501;-75
2022/05/05 13:57:06;;;;;;;;;10.33;9.33;;;;;;;;5068743;28;46250;-79
2022/05/05 13:59:31;;;;;;;;;11.00;10.67;;;;;;;;5079837;27;46794;-78
2022/05/05 14:01:56;;;;;;;;;11.00;11.00;;;;;;;;5084062;28;45895;-76
2022/05/05 14:04:22;;;;;;;;;12.33;11.33;;;;;;;;5085933;27;45366;-81
2022/05/05 14:06:47;;;;;;;;;8.33;8.33;;;;;;;;5086478;27;45221;-78
2022/05/05 14:12:11;;;;;;;;;9.00;8.00;;;;;;;;5078308;28;45394;-80
2022/05/05 14:14:37;;;;;;;;;9.33;9.33;;;;;;;;5066365;27;45286;-79
2022/05/05 14:17:03;;;;;;;;;8.67;8.00;;;;;;;;5079886;27;45279;-80
2022/05/05 14:19:28;;;;;;;;;6.00;6.00;;;;;;;;5083784;28;47344;-80
2022/05/05 14:21:53;;;;;;;;;8.00;7.67;;;;;;;;5086382;28;45413;-78
2022/05/05 14:24:18;;;;;;;;;8.33;8.00;;;;;;;;5084433;27;45656;-78
2022/05/05 14:26:45;;;;;;;;;7.67;7.67;;;;;;;;5086733;28;46038;-75
2022/05/05 14:29:11;;;;;;;;;8.00;8.00;;;;;;;;5063992;28;45520;-76
2022/05/05 14:31:36;;;;;;;;;5.33;5.33;;;;;;;;5069732;28;46550;-78
2022/05/05 14:34:01;;;;;;;;;9.33;7.00;;;;;;;;5068656;28;45276;-76
2022/05/05 14:36:26;;;;;;;;;6.00;6.00;;;;;;;;5062116;28;46295;-81
2022/05/05 14:38:52;;;;;;;;;7.00;7.00;;;;;;;;5071214;28;45516;-79
2022/05/05 14:41:17;;;;;;;;;6.00;6.00;;;;;;;;5063483;28;45275;-78
2022/05/05 14:43:42;;;;;;;;;7.00;7.00;;;;;;;;5059710;28;45330;-80
2022/05/05 14:46:07;;;;;;;;;8.67;7.33;;;;;;;;5062926;28;47096;-78
2022/05/05 14:48:33;;;;;;;;;7.00;7.00;;;;;;;;5064968;28;45303;-79
2022/05/05 14:50:58;;;;;;;;;6.00;6.00;;;;;;;;5069265;28;45808;-78
2022/05/05 14:53:23;;;;;;;;;6.00;6.00;;;;;;;;5071688;28;45472;-79
2022/05/05 14:55:49;;;;;;;;;7.00;7.00;;;;;;;;5070351;28;45299;-78
2022/05/05 14:58:14;;;;;;;;;6.00;6.00;;;;;;;;5069710;28;45325;-79
2022/05/05 15:00:40;;;;;;;;;6.00;5.00;;;;;;;;5068406;28;45236;-76
2022/05/05 15:03:05;;;;;;;;;6.00;6.00;;;;;;;;5073084;28;45449;-79
2022/05/05 15:05:30;;;;;;;;;5.67;5.67;;;;;;;;5077844;27;45286;-78
2022/05/05 15:07:55;;;;;;;;;5.67;5.67;;;;;;;;5080243;27;45274;-77
2022/05/05 15:10:21;;;;;;;;;7.33;7.33;;;;;;;;5080164;27;45286;-78
2022/05/05 15:12:46;;;;;;;;;4.33;4.00;;;;;;;;5079392;27;45283;-78
2022/05/05 15:15:11;;;;;;;;;6.33;6.00;;;;;;;;5085427;27;45308;-77
2022/05/05 15:17:36;;;;;;;;;7.00;7.00;;;;;;;;5077330;27;48191;-78
2022/05/05 15:20:02;;;;;;;;;5.00;5.00;;;;;;;;5075573;28;45492;-77